Time;durP1;ratioP1;P1;durP2;ratioP2;P2;SDS_P1;SDS_P2;PMS_P1;PMS_P2;Temp;Humidity;BMP_temperature;BMP_pressure;BME280_temperature;BME280_humidity;BME280_pressure;Samples;Min_cycle;Max_cycle;Signal;HPM_P1;HPM_P2
2022/11/30 00:00:36;;;;;;;6.68;6.00;;;;;;;4.02;100.00;62412.19;5029071;28;20276;-78
2022/11/30 00:03:03;;;;;;;10.45;6.82;;;;;;;3.85;100.00;62394.69;5026935;28;20198;-77
2022/11/30 00:05:30;;;;;;;9.90;6.75;;;;;;;3.94;100.00;62406.47;5030912;28;20242;-79
2022/11/30 00:07:57;;;;;;;7.15;6.00;;;;;;;3.87;100.00;62394.75;5030328;28;20553;-79
2022/11/30 00:10:24;;;;;;;8.68;6.05;;;;;;;3.86;100.00;62395.72;5029047;28;20234;-78
2022/11/30 00:12:51;;;;;;;9.48;6.57;;;;;;;4.02;100.00;62412.19;5029594;28;20237;-79
2022/11/30 00:15:19;;;;;;;6.25;5.50;;;;;;;4.11;100.00;62419.44;5029738;28;20218;-76
2022/11/30 00:17:47;;;;;;;6.45;5.85;;;;;;;4.02;100.00;62410.16;5028172;28;20246;-77
2022/11/30 00:20:15;;;;;;;6.65;5.93;;;;;;;3.95;100.00;62408.00;5026139;28;20223;-79
2022/11/30 00:22:42;;;;;;;8.07;6.05;;;;;;;3.91;100.00;62398.88;5026008;28;20199;-77
2022/11/30 00:25:09;;;;;;;7.07;6.40;;;;;;;3.89;100.00;62401.84;5026820;28;20262;-76
2022/11/30 00:27:36;;;;;;;6.72;6.13;;;;;;;4.04;100.00;62414.25;5027212;28;20214;-78
2022/11/30 00:30:04;;;;;;;8.93;6.53;;;;;;;4.12;100.00;62423.00;5025757;28;20236;-77
2022/11/30 00:32:31;;;;;;;7.53;6.72;;;;;;;4.06;100.00;62413.78;5026034;28;20241;-77
2022/11/30 00:35:00;;;;;;;11.48;6.95;;;;;;;4.17;100.00;62427.63;5026532;28;20451;-77
2022/11/30 00:37:27;;;;;;;8.52;5.80;;;;;;;4.12;100.00;62425.00;5031975;28;20266;-77
2022/11/30 00:39:54;;;;;;;7.47;6.72;;;;;;;4.28;100.00;62439.44;5045670;28;20198;-76
2022/11/30 00:42:21;;;;;;;8.27;6.97;;;;;;;4.13;100.00;62421.50;5043769;28;20519;-76
2022/11/30 00:44:47;;;;;;;9.20;6.40;;;;;;;4.16;100.00;62424.06;5023718;28;20521;-75
2022/11/30 00:47:14;;;;;;;9.45;7.20;;;;;;;4.26;100.00;62431.84;5025077;28;20230;-77
2022/11/30 00:49:41;;;;;;;8.10;6.85;;;;;;;4.26;100.00;62436.88;5024082;28;20232;-77
2022/11/30 00:52:10;;;;;;;8.82;6.80;;;;;;;4.17;100.00;62425.09;5025158;28;20268;-76
2022/11/30 00:54:37;;;;;;;7.13;6.43;;;;;;;4.19;100.00;62429.66;5027144;28;20203;-75
2022/11/30 00:57:04;;;;;;;8.23;6.75;;;;;;;4.22;100.00;62430.75;5032184;28;20243;-76
2022/11/30 00:59:31;;;;;;;6.15;5.43;;;;;;;4.27;100.00;62438.41;5032461;28;20228;-75
2022/11/30 01:01:58;;;;;;;8.32;6.85;;;;;;;4.28;100.00;62441.47;5031176;28;20219;-77
2022/11/30 01:04:25;;;;;;;6.32;5.47;;;;;;;4.43;100.00;62456.88;5025478;28;20211;-75
2022/11/30 01:06:51;;;;;;;6.35;5.55;;;;;;;4.24;100.00;62437.34;5026886;28;20219;-76
2022/11/30 01:09:20;;;;;;;6.07;5.47;;;;;;;4.13;100.00;62420.97;5028351;28;20226;-76
2022/11/30 01:11:46;;;;;;;5.97;5.35;;;;;;;4.23;100.00;62431.25;5027895;28;20218;-76
2022/11/30 01:14:13;;;;;;;5.85;5.30;;;;;;;4.19;100.00;62427.66;5024783;28;20199;-76
2022/11/30 01:16:40;;;;;;;5.35;4.65;;;;;;;3.91;100.00;62400.88;5008993;28;20266;-76
2022/11/30 01:19:07;;;;;;;5.60;5.07;;;;;;;4.02;100.00;62415.19;5026538;28;20429;-75
2022/11/30 01:21:34;;;;;;;5.13;4.63;;;;;;;4.12;100.00;62427.50;5029213;28;20237;-75
2022/11/30 01:24:01;;;;;;;4.88;4.47;;;;;;;4.12;100.00;62419.94;5026498;28;20222;-76
2022/11/30 01:26:29;;;;;;;4.95;4.45;;;;;;;4.10;100.00;62423.44;5025633;28;20246;-77
2022/11/30 01:28:56;;;;;;;4.60;3.30;;;;;;;4.15;100.00;62425.56;5023659;28;20213;-76
2022/11/30 01:31:24;;;;;;;3.97;3.70;;;;;;;4.14;100.00;62427.06;5025570;28;20223;-77
2022/11/30 01:33:52;;;;;;;3.40;3.13;;;;;;;4.00;100.00;62413.16;5027533;28;20209;-77
2022/11/30 01:36:21;;;;;;;4.30;3.90;;;;;;;3.98;100.00;62413.09;5030450;28;20241;-76
2022/11/30 01:38:50;;;;;;;3.92;3.63;;;;;;;4.03;100.00;62415.72;5030199;28;20542;-77
2022/11/30 01:41:20;;;;;;;4.70;4.20;;;;;;;3.98;100.00;62408.59;5028894;28;20210;-75
2022/11/30 01:43:51;;;;;;;20.23;4.00;;;;;;;3.87;100.00;62394.75;5029624;28;20190;-75
2022/11/30 01:46:26;;;;;;;4.20;3.90;;;;;;;4.01;100.00;62408.63;5026599;28;20236;-76
2022/11/30 01:49:01;;;;;;;4.30;3.90;;;;;;;3.93;100.00;62398.41;5043658;28;20202;-76
2022/11/30 01:51:34;;;;;;;14.50;4.18;;;;;;;4.08;100.00;62416.34;5033310;28;20264;-75
2022/11/30 01:54:02;;;;;;;12.73;4.38;;;;;;;4.02;100.00;62415.19;5033629;28;20198;-75
2022/11/30 01:56:30;;;;;;;6.35;3.63;;;;;;;4.04;100.00;62409.22;5036413;28;20229;-75
2022/11/30 01:58:59;;;;;;;45.38;5.90;;;;;;;4.18;100.00;62431.16;5035157;28;20210;-76
2022/11/30 02:01:26;;;;;;;21.15;6.00;;;;;;;4.18;100.00;62426.13;5035165;28;20222;-76
2022/11/30 02:03:59;;;;;;;11.75;5.13;;;;;;;4.24;100.00;62439.84;5034399;28;20490;-76
2022/11/30 02:06:26;;;;;;;14.18;4.57;;;;;;;4.27;100.00;62435.91;5032289;28;20338;-75
2022/11/30 02:08:55;;;;;;;55.08;6.47;;;;;;;3.98;100.00;62408.06;5033121;28;20199;-75
2022/11/30 02:11:23;;;;;;;35.45;6.13;;;;;;;3.92;100.00;62401.91;5033258;28;20238;-75
2022/11/30 02:14:08;;;;;;;5.20;3.88;;;;;;;4.00;100.00;62407.59;5031924;28;20249;-76
2022/11/30 02:16:43;;;;;;;7.45;3.72;;;;;;;4.11;100.00;62419.44;5032814;28;20310;-75
2022/11/30 02:19:33;;;;;;;4.45;4.05;;;;;;;4.17;100.00;62425.09;5034808;28;20389;-76
2022/11/30 02:22:12;;;;;;;5.28;3.75;;;;;;;4.09;100.00;62417.38;5031015;28;20218;-75
2022/11/30 02:24:55;;;;;;;10.27;3.53;;;;;;;4.19;100.00;62430.19;5033558;28;20249;-76
2022/11/30 02:27:36;;;;;;;8.10;4.47;;;;;;;4.25;100.00;62433.84;5032827;28;20219;-75
2022/11/30 02:30:09;;;;;;;4.57;4.18;;;;;;;4.13;100.00;62420.97;5035612;28;20230;-74
2022/11/30 02:32:45;;;;;;;4.75;4.25;;;;;;;4.21;100.00;62427.19;5033727;28;20226;-75
2022/11/30 02:35:15;;;;;;;5.45;4.00;;;;;;;4.25;100.00;62436.34;5033457;28;20240;-75
2022/11/30 02:37:43;;;;;;;6.88;4.25;;;;;;;4.25;100.00;62433.84;5033197;28;20241;-74
2022/11/30 02:40:14;;;;;;;6.15;4.85;;;;;;;4.34;100.00;62447.63;5043004;28;20237;-74
2022/11/30 02:42:41;;;;;;;7.32;5.22;;;;;;;4.35;100.00;62449.16;5044048;28;20258;-74
2022/11/30 02:45:11;;;;;;;5.50;5.00;;;;;;;4.32;100.00;62443.03;5032781;28;20391;-76
2022/11/30 02:47:43;;;;;;;9.45;4.80;;;;;;;4.34;100.00;62442.59;5026859;28;20262;-76
2022/11/30 02:50:17;;;;;;;6.93;4.60;;;;;;;4.35;100.00;62441.59;5046959;28;20518;-77
2022/11/30 02:52:45;;;;;;;7.45;4.55;;;;;;;4.22;100.00;62435.78;5028806;28;20277;-76
2022/11/30 02:55:16;;;;;;;6.85;3.92;;;;;;;4.11;100.00;62421.94;5028853;28;20227;-77
2022/11/30 02:57:43;;;;;;;4.13;3.72;;;;;;;4.19;100.00;62427.66;5032940;28;20495;-77
2022/11/30 03:00:13;;;;;;;4.13;3.80;;;;;;;4.05;100.00;62417.78;5041436;28;20249;-76
2022/11/30 03:02:41;;;;;;;4.60;4.20;;;;;;;4.10;100.00;62422.94;5027938;28;20210;-76
2022/11/30 03:05:09;;;;;;;4.38;3.97;;;;;;;4.12;100.00;62423.00;5027322;28;20203;-76
2022/11/30 03:07:35;;;;;;;4.40;4.00;;;;;;;4.21;100.00;62426.69;5034943;28;20214;-76
2022/11/30 03:10:03;;;;;;;5.55;4.47;;;;;;;4.20;100.00;62431.22;5034318;28;20234;-76
2022/11/30 03:12:30;;;;;;;4.93;4.43;;;;;;;4.19;100.00;62427.66;5027697;28;20199;-76
2022/11/30 03:14:57;;;;;;;5.53;4.43;;;;;;;4.19;100.00;62432.72;5022013;28;20203;-76
2022/11/30 03:17:26;;;;;;;4.68;4.28;;;;;;;4.33;100.00;62444.09;5048418;28;20202;-77
2022/11/30 03:19:53;;;;;;;7.05;4.90;;;;;;;4.19;100.00;62427.16;5025701;28;20266;-76
2022/11/30 03:22:20;;;;;;;6.88;5.20;;;;;;;4.25;100.00;62433.84;5027236;28;20395;-75
2022/11/30 03:24:52;;;;;;;12.60;5.03;;;;;;;4.22;100.00;62433.28;5032983;28;20396;-75
2022/11/30 03:27:22;;;;;;;7.28;5.82;;;;;;;4.11;100.00;62421.94;5035387;28;20206;-75
2022/11/30 03:29:50;;;;;;;8.60;4.53;;;;;;;4.06;100.00;62416.28;5036953;28;20215;-75
2022/11/30 03:32:19;;;;;;;6.07;5.47;;;;;;;4.09;100.00;62417.38;5035783;28;20435;-77
2022/11/30 03:34:48;;;;;;;8.25;5.05;;;;;;;4.03;100.00;62413.22;5036625;28;20198;-74
2022/11/30 03:37:15;;;;;;;7.55;5.78;;;;;;;3.99;100.00;62406.56;5032440;28;20241;-76
2022/11/30 03:39:42;;;;;;;8.85;5.00;;;;;;;4.03;100.00;62411.22;5027713;28;20199;-75
2022/11/30 03:42:09;;;;;;;10.00;4.93;;;;;;;4.01;100.00;62414.19;5027497;28;20268;-77
2022/11/30 03:44:35;;;;;;;6.03;5.43;;;;;;;3.97;100.00;62407.03;5045898;28;20221;-76
2022/11/30 03:47:02;;;;;;;6.85;5.50;;;;;;;3.98;100.00;62403.53;5027157;28;20223;-76
2022/11/30 03:49:29;;;;;;;5.95;5.07;;;;;;;4.12;100.00;62422.47;5026760;28;20209;-75
2022/11/30 03:51:57;;;;;;;9.25;6.07;;;;;;;4.17;100.00;62428.13;5029505;28;20218;-76
2022/11/30 03:54:24;;;;;;;9.85;6.25;;;;;;;4.25;100.00;62440.88;5025873;28;20202;-75
2022/11/30 03:56:51;;;;;;;8.18;5.95;;;;;;;4.09;100.00;62417.38;5043293;28;20246;-75
2022/11/30 03:59:18;;;;;;;7.22;5.90;;;;;;;4.03;100.00;62413.22;5039926;28;20237;-76
2022/11/30 04:01:45;;;;;;;9.18;6.55;;;;;;;4.11;100.00;62418.91;5034096;28;20260;-75
2022/11/30 04:04:11;;;;;;;15.07;8.35;;;;;;;4.12;100.00;62417.44;5031106;28;20209;-75
2022/11/30 04:06:39;;;;;;;7.95;6.22;;;;;;;4.19;100.00;62429.66;5024040;28;20249;-76
2022/11/30 04:09:07;;;;;;;32.55;8.15;;;;;;;4.27;100.00;62435.38;5024739;28;20198;-76
2022/11/30 04:11:34;;;;;;;45.10;8.90;;;;;;;4.31;100.00;62442.03;5024079;28;20261;-75
2022/11/30 04:14:01;;;;;;;32.70;8.55;;;;;;;4.33;100.00;62444.59;5021802;28;20203;-76
2022/11/30 04:16:28;;;;;;;55.75;10.63;;;;;;;4.28;100.00;62441.97;5024115;28;20218;-74
2022/11/30 04:18:55;;;;;;;49.90;9.40;;;;;;;4.30;100.00;62435.94;5022480;28;20646;-76
2022/11/30 04:21:22;;;;;;;148.30;17.00;;;;;;;4.19;100.00;62430.19;5022474;28;20233;-74
2022/11/30 04:23:49;;;;;;;133.70;17.35;;;;;;;4.21;100.00;62431.72;5023778;28;20522;-76
2022/11/30 04:26:17;;;;;;;204.07;19.55;;;;;;;4.19;100.00;62429.66;5022716;28;20254;-76
2022/11/30 04:28:44;;;;;;;28.98;8.93;;;;;;;4.30;100.00;62438.47;5032490;28;20549;-75
2022/11/30 04:31:12;;;;;;;17.02;9.48;;;;;;;4.36;100.00;62445.16;5029943;28;20234;-75
2022/11/30 04:33:39;;;;;;;17.70;9.88;;;;;;;4.37;100.00;62443.66;5022415;28;20209;-75
2022/11/30 04:36:08;;;;;;;23.30;8.88;;;;;;;4.44;100.00;62458.44;5022204;28;20436;-76
2022/11/30 04:38:36;;;;;;;26.67;11.50;;;;;;;4.50;100.00;62461.56;5038460;28;20256;-75
2022/11/30 04:41:07;;;;;;;72.47;10.95;;;;;;;4.45;100.00;62454.41;5038211;28;20214;-75
2022/11/30 04:43:36;;;;;;;30.23;8.45;;;;;;;4.36;100.00;62450.22;5020909;28;20198;-76
2022/11/30 04:46:03;;;;;;;5.95;5.28;;;;;;;4.31;100.00;62442.53;5014036;28;20227;-75
2022/11/30 04:48:30;;;;;;;8.57;5.40;;;;;;;4.34;100.00;62445.09;5004990;28;20199;-75
2022/11/30 04:51:01;;;;;;;5.15;4.65;;;;;;;4.31;100.00;62445.06;5015089;28;20338;-76
2022/11/30 04:53:28;;;;;;;3.80;3.50;;;;;;;4.30;100.00;62441.50;5037528;28;20205;-75
2022/11/30 04:55:55;;;;;;;3.63;3.15;;;;;;;4.29;100.00;62445.53;5025164;28;20218;-75
2022/11/30 04:58:22;;;;;;;2.92;2.72;;;;;;;4.27;100.00;62440.41;5015689;28;20476;-76
2022/11/30 05:00:50;;;;;;;5.57;3.83;;;;;;;4.20;100.00;62430.69;5023544;28;20261;-76
2022/11/30 05:03:17;;;;;;;3.40;3.20;;;;;;;4.12;100.00;62422.47;5039764;28;20248;-75
2022/11/30 05:05:43;;;;;;;3.08;2.88;;;;;;;3.99;100.00;62414.13;5017422;28;20265;-76
2022/11/30 05:08:10;;;;;;;4.22;3.15;;;;;;;4.04;100.00;62414.75;5012559;28;20383;-75
2022/11/30 05:10:37;;;;;;;3.35;3.10;;;;;;;4.00;100.00;62407.59;5023741;28;20242;-75
2022/11/30 05:13:04;;;;;;;3.40;3.15;;;;;;;3.87;100.00;62394.75;5010926;28;20479;-76
2022/11/30 05:15:31;;;;;;;3.10;2.90;;;;;;;3.90;100.00;62402.34;5018415;28;20230;-75
2022/11/30 05:18:01;;;;;;;3.83;3.42;;;;;;;3.95;100.00;62402.97;5023990;28;20191;-75
2022/11/30 05:20:28;;;;;;;4.22;3.75;;;;;;;3.94;100.00;62406.97;5026619;28;20218;-76
2022/11/30 05:22:55;;;;;;;4.40;4.05;;;;;;;4.08;100.00;62421.38;5023374;28;20199;-77
2022/11/30 05:25:22;;;;;;;4.75;4.35;;;;;;;4.16;100.00;62426.59;5025154;28;20455;-75
2022/11/30 05:27:49;;;;;;;5.22;4.13;;;;;;;4.20;100.00;62430.69;5023595;28;20202;-76
2022/11/30 05:30:16;;;;;;;6.32;3.85;;;;;;;4.10;100.00;62415.88;5025044;28;20282;-76
2022/11/30 05:32:43;;;;;;;6.28;5.22;;;;;;;4.07;100.00;62420.34;5027752;28;20199;-76
2022/11/30 05:35:11;;;;;;;8.30;5.72;;;;;;;4.11;100.00;62416.38;5025498;28;20245;-76
2022/11/30 05:37:38;;;;;;;6.10;4.70;;;;;;;4.15;100.00;62428.06;5027001;28;20207;-75
2022/11/30 05:40:06;;;;;;;5.53;5.00;;;;;;;3.98;100.00;62411.09;5026670;28;20222;-75
2022/11/30 05:42:33;;;;;;;4.72;3.88;;;;;;;4.00;100.00;62407.59;5024482;28;20270;-77
2022/11/30 05:45:00;;;;;;;3.70;3.50;;;;;;;3.89;100.00;62399.31;5018214;28;20206;-76
2022/11/30 05:47:27;;;;;;;3.83;3.53;;;;;;;4.10;100.00;62415.88;5006384;28;20210;-75
2022/11/30 05:49:54;;;;;;;8.40;5.38;;;;;;;3.94;100.00;62404.47;5022629;28;20202;-75
2022/11/30 05:52:22;;;;;;;5.90;4.40;;;;;;;4.06;100.00;62413.78;5025881;28;20503;-75
2022/11/30 05:54:49;;;;;;;5.78;4.32;;;;;;;4.05;100.00;62410.22;5024591;28;20203;-75
2022/11/30 05:57:17;;;;;;;4.88;4.50;;;;;;;3.97;100.00;62404.53;5025968;28;20226;-78
2022/11/30 05:59:44;;;;;;;7.15;4.53;;;;;;;4.03;100.00;62413.22;5026006;28;20529;-76
2022/11/30 06:02:11;;;;;;;4.07;3.67;;;;;;;4.15;100.00;62423.56;5024367;28;20229;-75
2022/11/30 06:04:37;;;;;;;4.72;4.15;;;;;;;4.21;100.00;62434.25;5026011;28;20237;-75
2022/11/30 06:07:04;;;;;;;4.80;4.38;;;;;;;4.16;100.00;62424.06;5021414;28;20287;-75
2022/11/30 06:09:33;;;;;;;4.00;3.70;;;;;;;4.13;100.00;62420.97;5006201;28;20257;-76
2022/11/30 06:12:00;;;;;;;4.95;3.63;;;;;;;4.26;100.00;62439.91;5012505;28;20325;-76
2022/11/30 06:14:27;;;;;;;3.95;3.65;;;;;;;4.31;100.00;62442.03;5008885;28;20496;-75
2022/11/30 06:16:54;;;;;;;4.40;4.00;;;;;;;4.43;100.00;62454.38;5026763;28;20222;-76
2022/11/30 06:19:21;;;;;;;4.93;4.35;;;;;;;4.46;100.00;62455.44;5025012;28;20198;-77
2022/11/30 06:21:48;;;;;;;4.40;4.03;;;;;;;4.51;100.00;62463.13;5039083;28;20253;-76
2022/11/30 06:24:15;;;;;;;5.43;4.90;;;;;;;4.62;100.00;62471.91;5045676;28;20200;-77
2022/11/30 06:26:43;;;;;;;4.70;4.30;;;;;;;4.57;100.00;62468.78;5045458;28;20530;-75
2022/11/30 06:29:10;;;;;;;3.90;3.63;;;;;;;4.23;100.00;62431.78;5044741;28;20205;-76
2022/11/30 06:31:37;;;;;;;4.07;3.78;;;;;;;4.42;100.00;62458.88;5045492;28;20284;-76
2022/11/30 06:34:03;;;;;;;5.82;4.50;;;;;;;4.45;100.00;62458.94;5045328;28;20491;-75
2022/11/30 06:36:31;;;;;;;8.35;4.68;;;;;;;4.50;100.00;62461.56;5046957;28;20222;-76
2022/11/30 06:38:58;;;;;;;5.68;5.20;;;;;;;4.54;100.00;62468.72;5038582;28;20229;-76
2022/11/30 06:41:25;;;;;;;4.95;4.57;;;;;;;4.61;100.00;62472.88;5025659;28;20218;-75
2022/11/30 06:43:53;;;;;;;4.53;3.90;;;;;;;4.59;100.00;62468.31;5025742;28;20202;-75
2022/11/30 06:46:21;;;;;;;4.50;4.10;;;;;;;4.64;100.00;62479.00;5027558;28;20427;-75
2022/11/30 06:48:49;;;;;;;4.75;4.25;;;;;;;4.57;100.00;62466.25;5028433;28;20538;-77
2022/11/30 06:51:18;;;;;;;4.32;4.03;;;;;;;4.61;100.00;62472.88;5029984;28;20264;-77
2022/11/30 06:53:46;;;;;;;3.80;3.60;;;;;;;4.41;100.00;62457.34;5045805;28;20206;-77
2022/11/30 06:56:13;;;;;;;2.83;2.63;;;;;;;4.58;100.00;62467.81;5045504;28;20221;-75
2022/11/30 06:58:41;;;;;;;3.67;3.47;;;;;;;4.59;100.00;62470.84;5046171;28;20483;-77
2022/11/30 07:01:11;;;;;;;3.03;2.78;;;;;;;4.52;100.00;62466.66;5044117;28;20221;-76
2022/11/30 07:03:39;;;;;;;3.33;3.13;;;;;;;4.51;100.00;62465.63;5045168;28;20197;-77
2022/11/30 07:06:08;;;;;;;3.95;3.47;;;;;;;4.63;100.00;62472.44;5045174;28;20454;-76
2022/11/30 07:08:34;;;;;;;3.50;3.30;;;;;;;4.56;100.00;62465.22;5040313;28;20210;-76
2022/11/30 07:11:01;;;;;;;3.22;3.03;;;;;;;4.54;100.00;62468.19;5042801;28;20531;-75
2022/11/30 07:13:28;;;;;;;3.63;3.42;;;;;;;4.66;100.00;62480.56;5045302;28;20198;-76
2022/11/30 07:15:55;;;;;;;4.03;3.25;;;;;;;4.61;100.00;62470.88;5029332;28;20572;-75
2022/11/30 07:18:24;;;;;;;3.25;3.05;;;;;;;4.62;100.00;62468.88;5027664;28;20209;-75
2022/11/30 07:20:50;;;;;;;4.00;3.70;;;;;;;4.72;100.00;62484.75;5044429;28;20230;-76
2022/11/30 07:26:09;;;;;;;3.83;3.53;;;;;;;4.57;100.00;62471.31;5046072;28;20244;-76
2022/11/30 07:28:38;;;;;;;4.65;4.25;;;;;;;4.59;100.00;62470.84;5030551;28;20213;-76
2022/11/30 07:31:19;;;;;;;3.28;3.08;;;;;;;4.32;100.00;62440.53;5023907;28;20238;-75
2022/11/30 07:33:48;;;;;;;3.20;3.00;;;;;;;4.47;100.00;62458.47;5024067;28;20210;-76
2022/11/30 07:36:17;;;;;;;3.58;2.38;;;;;;;4.47;100.00;62458.47;5043063;28;20273;-76
2022/11/30 07:38:44;;;;;;;3.50;3.20;;;;;;;4.35;100.00;62444.13;5045147;28;20217;-76
2022/11/30 07:41:11;;;;;;;4.45;4.05;;;;;;;4.30;100.00;62441.50;5044954;28;20545;-76
2022/11/30 07:43:38;;;;;;;3.95;3.00;;;;;;;4.17;100.00;62423.09;5041909;28;20442;-75
2022/11/30 07:46:12;;;;;;;3.30;3.10;;;;;;;4.14;100.00;62422.00;5044188;28;20264;-78
2022/11/30 07:48:39;;;;;;;2.92;2.72;;;;;;;4.29;100.00;62439.97;5024758;28;20272;-76
2022/11/30 07:51:12;;;;;;;3.42;3.22;;;;;;;4.25;100.00;62431.31;5023881;28;20235;-76
2022/11/30 07:53:39;;;;;;;2.85;2.75;;;;;;;4.14;100.00;62427.56;5035232;28;20202;-76
2022/11/30 07:56:10;;;;;;;2.60;2.50;;;;;;;4.14;100.00;62420.00;5032666;28;20328;-77
2022/11/30 07:58:37;;;;;;;3.55;2.90;;;;;;;4.16;100.00;62422.06;5038098;28;20218;-76
2022/11/30 08:01:18;;;;;;;3.47;3.03;;;;;;;4.26;100.00;62434.34;5043771;28;20222;-76
2022/11/30 08:03:46;;;;;;;3.53;3.28;;;;;;;4.29;100.00;62437.44;5043972;28;20198;-76
2022/11/30 08:06:18;;;;;;;3.10;2.90;;;;;;;4.30;100.00;62441.50;5042675;28;20222;-76
2022/11/30 08:08:45;;;;;;;5.30;3.83;;;;;;;4.30;100.00;62441.50;5025143;28;20225;-76
2022/11/30 08:11:17;;;;;;;4.13;3.83;;;;;;;4.23;100.00;62436.28;5024246;28;20230;-77
2022/11/30 08:13:44;;;;;;;3.55;3.22;;;;;;;4.30;100.00;62441.50;5022758;28;20496;-76
2022/11/30 08:16:13;;;;;;;4.35;3.95;;;;;;;4.36;100.00;62447.69;5006471;28;20277;-75
2022/11/30 08:18:42;;;;;;;8.82;5.40;;;;;;;4.46;100.00;62457.44;5008536;28;20508;-76
2022/11/30 08:21:12;;;;;;;10.18;6.25;;;;;;;4.35;100.00;62443.59;5036469;28;20426;-75
2022/11/30 08:23:41;;;;;;;3.67;3.38;;;;;;;4.39;100.00;62450.25;5036667;28;20194;-75
2022/11/30 08:26:11;;;;;;;3.20;3.00;;;;;;;4.42;100.00;62453.31;5024194;28;20269;-76
2022/11/30 08:28:40;;;;;;;4.28;3.47;;;;;;;4.44;100.00;62455.38;5025241;28;20199;-75
2022/11/30 08:31:09;;;;;;;4.22;3.67;;;;;;;4.32;100.00;62441.03;5027005;28;20222;-75
2022/11/30 08:33:37;;;;;;;3.83;3.55;;;;;;;4.50;100.00;62464.59;5042364;28;20198;-75
2022/11/30 08:36:08;;;;;;;3.55;3.22;;;;;;;4.53;100.00;62464.66;5035052;28;20336;-76
2022/11/30 08:38:35;;;;;;;3.33;3.05;;;;;;;4.42;100.00;62453.31;5031980;28;20538;-76
2022/11/30 08:41:04;;;;;;;6.68;3.88;;;;;;;4.48;100.00;62457.50;5026221;28;20226;-74
2022/11/30 08:43:31;;;;;;;3.63;3.33;;;;;;;4.56;100.00;62475.81;5034912;28;20252;-75
2022/11/30 08:45:58;;;;;;;6.15;3.22;;;;;;;4.69;100.00;62481.13;5049144;28;20217;-74
2022/11/30 08:48:25;;;;;;;4.63;3.55;;;;;;;4.90;100.00;62502.25;5030236;28;20492;-77
2022/11/30 08:50:52;;;;;;;4.60;3.70;;;;;;;4.83;100.00;62493.03;5035678;28;20393;-76
2022/11/30 08:53:19;;;;;;;11.48;5.88;;;;;;;4.81;100.00;62490.44;5049484;28;20229;-75
2022/11/30 08:55:55;;;;;;;18.88;7.65;;;;;;;4.77;100.00;62486.31;5036305;28;20222;-75
2022/11/30 08:58:27;;;;;;;13.65;7.43;;;;;;;4.77;100.00;62491.38;5028556;28;20198;-76
2022/11/30 09:00:54;;;;;;;8.45;5.78;;;;;;;4.81;100.00;62490.44;5029805;28;20403;-76
2022/11/30 09:03:21;;;;;;;4.97;4.57;;;;;;;4.77;100.00;62486.31;5030264;28;20385;-77
2022/11/30 09:05:48;;;;;;;5.30;4.80;;;;;;;4.76;100.00;62488.34;5038492;28;20218;-75
2022/11/30 09:08:15;;;;;;;5.63;4.55;;;;;;;5.01;100.00;62513.56;5050097;28;20197;-76
2022/11/30 09:10:42;;;;;;;8.52;5.22;;;;;;;5.09;100.00;62519.28;5047987;28;20218;-77
2022/11/30 09:13:09;;;;;;;7.07;4.63;;;;;;;4.83;100.00;62493.03;5047751;28;20244;-77
2022/11/30 09:15:37;;;;;;;6.63;5.10;;;;;;;4.86;100.00;62495.59;5032397;28;20277;-74
2022/11/30 09:18:04;;;;;;;6.15;5.63;;;;;;;5.02;100.00;62514.59;5028320;28;20206;-77
2022/11/30 09:20:32;;;;;;;8.93;7.32;;;;;;;4.94;100.00;62506.34;5029947;28;20305;-79
2022/11/30 09:23:00;;;;;;;25.77;14.05;;;;;;;4.90;100.00;62502.25;5028114;28;20202;-77
2022/11/30 09:25:26;;;;;;;17.80;9.52;;;;;;;4.88;100.00;62495.13;5046679;28;20236;-77
2022/11/30 09:27:53;;;;;;;15.60;9.55;;;;;;;4.76;100.00;62485.31;5047485;28;20197;-78
2022/11/30 09:30:20;;;;;;;14.25;9.82;;;;;;;4.90;100.00;62502.25;5047507;28;20217;-77
2022/11/30 09:32:48;;;;;;;9.80;7.53;;;;;;;5.07;100.00;62517.72;5040679;28;20266;-78
2022/11/30 09:35:15;;;;;;;5.32;4.93;;;;;;;5.13;100.00;62526.44;5027873;28;20246;-77
2022/11/30 09:37:42;;;;;;;4.88;4.40;;;;;;;5.19;100.00;62535.13;5028808;28;20425;-76
2022/11/30 09:40:11;;;;;;;4.05;3.78;;;;;;;5.06;100.00;62519.22;5031246;28;20199;-78
2022/11/30 09:42:49;;;;;;;4.93;4.53;;;;;;;5.19;100.00;62535.13;5038826;28;20244;-77
2022/11/30 09:45:23;;;;;;;5.25;4.78;;;;;;;5.18;100.00;62531.06;5029268;28;20222;-76
2022/11/30 09:48:21;;;;;;;5.82;4.40;;;;;;;5.23;100.00;62531.19;5045864;28;20240;-75
2022/11/30 09:50:51;;;;;;;4.82;4.22;;;;;;;5.13;100.00;62526.44;5032125;28;20431;-77
2022/11/30 09:53:27;;;;;;;4.50;4.10;;;;;;;5.08;100.00;62521.28;5030811;28;20432;-77
2022/11/30 09:55:55;;;;;;;5.35;3.30;;;;;;;5.25;100.00;62538.78;5026102;28;20261;-76
2022/11/30 09:58:30;;;;;;;4.68;4.28;;;;;;;5.47;100.00;62558.41;5027469;28;20249;-76
2022/11/30 10:00:57;;;;;;;4.90;4.40;;;;;;;5.60;100.00;62574.84;5028831;28;20217;-76
2022/11/30 10:03:25;;;;;;;4.53;4.03;;;;;;;5.56;100.00;62565.16;5040134;28;20491;-75
2022/11/30 10:05:59;;;;;;;4.60;4.05;;;;;;;5.68;100.00;62587.63;5046740;28;20225;-77
2022/11/30 10:08:53;;;;;;;9.32;6.43;;;;;;;5.56;100.00;62572.72;5045585;28;20220;-77
2022/11/30 10:11:35;;;;;;;5.47;5.07;;;;;;;5.48;100.00;62559.97;5044359;28;20214;-76
2022/11/30 10:14:16;;;;;;;4.43;4.13;;;;;;;5.47;100.00;62560.94;5047029;28;20210;-76
2022/11/30 10:16:50;;;;;;;4.80;4.40;;;;;;;5.58;100.00;62569.75;5018035;28;20230;-76
2022/11/30 10:19:35;;;;;;;10.80;4.22;;;;;;;5.57;100.00;62569.22;5027550;28;20206;-77
2022/11/30 10:22:11;;;;;;;10.05;6.20;;;;;;;5.69;100.00;62583.59;5045587;28;20515;-78
2022/11/30 10:24:56;;;;;;;10.35;4.60;;;;;;;5.69;100.00;62584.09;5046919;28;20186;-77
2022/11/30 10:27:38;;;;;;;5.15;4.65;;;;;;;5.80;100.00;62592.91;5044421;28;20209;-76
2022/11/30 10:30:13;;;;;;;11.80;4.57;;;;;;;5.39;100.00;62550.69;5046461;28;20217;-77
2022/11/30 10:32:43;;;;;;;5.07;4.57;;;;;;;5.21;100.00;62529.13;5046489;28;20233;-76
2022/11/30 10:35:21;;;;;;;5.35;4.95;;;;;;;5.30;100.00;62545.94;5036903;28;20195;-77
2022/11/30 10:37:51;;;;;;;4.30;4.00;;;;;;;5.36;100.00;62550.13;5027295;28;20198;-77
2022/11/30 10:40:57;;;;;;;5.35;4.85;;;;;;;5.21;100.00;62537.19;5026185;28;20214;-77
2022/11/30 10:43:31;;;;;;;7.78;4.90;;;;;;;5.23;100.00;62536.22;5028979;28;20408;-76
2022/11/30 10:45:58;;;;;;;6.13;4.72;;;;;;;5.28;100.00;62538.84;5048382;28;20233;-76
2022/11/30 10:48:34;;;;;;;4.57;4.22;;;;;;;5.27;100.00;62543.38;5044925;28;20198;-77
2022/11/30 10:51:03;;;;;;;10.55;5.10;;;;;;;5.34;100.00;62545.00;5045933;28;20218;-76
2022/11/30 10:53:32;;;;;;;6.13;5.00;;;;;;;5.26;100.00;62542.34;5043434;28;20229;-76
2022/11/30 10:56:02;;;;;;;11.98;5.20;;;;;;;5.47;100.00;62560.94;5036109;28;20222;-76
2022/11/30 10:58:33;;;;;;;7.03;5.13;;;;;;;5.38;100.00;62551.66;5027023;28;20210;-77
2022/11/30 11:01:34;;;;;;;6.53;4.55;;;;;;;5.44;100.00;62560.38;5032196;28;20222;-76
2022/11/30 11:04:09;;;;;;;4.82;4.35;;;;;;;5.48;100.00;62559.97;5027144;28;20289;-77
2022/11/30 11:06:43;;;;;;;6.90;5.88;;;;;;;5.45;100.00;62559.38;5037557;28;20221;-75
2022/11/30 11:09:33;;;;;;;10.90;9.88;;;;;;;5.48;100.00;62565.00;5035043;28;20201;-76
2022/11/30 11:12:09;;;;;;;29.85;17.67;;;;;;;5.27;100.00;62540.31;5044023;28;20233;-76
2022/11/30 11:14:37;;;;;;;7.78;5.85;;;;;;;5.29;100.00;62544.91;5010777;28;20190;-77
2022/11/30 11:17:17;;;;;;;12.02;8.65;;;;;;;5.20;100.00;62533.13;5033486;28;20222;-76
2022/11/30 11:19:46;;;;;;;25.02;15.07;;;;;;;5.24;100.00;62535.25;5045503;28;20253;-76
2022/11/30 11:22:21;;;;;;;27.55;21.02;;;;;;;5.37;100.00;62551.16;5041193;28;20218;-76
2022/11/30 11:24:50;;;;;;;16.85;11.70;;;;;;;5.33;100.00;62547.03;5025125;28;20261;-76
2022/11/30 11:27:26;;;;;;;24.85;18.73;;;;;;;5.33;100.00;62544.50;5025362;28;20210;-76
2022/11/30 11:30:16;;;;;;;14.77;11.95;;;;;;;5.52;100.00;62564.06;5025410;28;20509;-77
2022/11/30 11:32:58;;;;;;;10.23;9.13;;;;;;;5.51;100.00;62563.03;5025050;28;20269;-76
2022/11/30 11:35:38;;;;;;;7.97;7.20;;;;;;;5.61;100.00;62575.88;5026177;28;20289;-76
2022/11/30 11:38:19;;;;;;;7.40;6.57;;;;;;;5.70;100.00;62585.16;5025693;28;20316;-77
2022/11/30 11:40:58;;;;;;;7.95;6.35;;;;;;;5.81;100.00;62598.50;5026595;28;20245;-77
2022/11/30 11:43:29;;;;;;;5.95;4.88;;;;;;;5.69;100.00;62586.63;5025371;28;20202;-77
2022/11/30 11:46:00;;;;;;;4.45;4.05;;;;;;;5.78;100.00;62587.84;5032291;28;20223;-77